SASJ/JUJ METAR and TAF weather

Enter ICAO airport designator
Station Type Date Time Source
SASJ METAR 2021/07/28 03:00 UTC NOAA

SASJ 280300Z 34005KT 9999 OVC040 08/04 Q1028


Station Type Date Time Source
SASJ Decoded METAR 2021/07/28 03:00 UTC NOAA

Jujuy Aerodrome, Argentina (SASJ) 24-23S 065-05W 905M
Jul 27, 2021 - 11:00 PM EDT / 2021.07.28 0300 UTC
Wind: from the NNW (340 degrees) at 6 MPH (5 KT):0
Visibility: greater than 7 mile(s):0
Sky conditions: overcast
Temperature: 46 F (8 C)
Dew Point: 39 F (4 C)
Relative Humidity: 75%
Pressure (altimeter): 30.36 in. Hg (1028 hPa)
ob: SASJ 280300Z 34005KT 9999 OVC040 08/04 Q1028
cycle: 3

Station Type Date Time Source
SASJ TAF 2021/07/28 00:00 UTC NOAA

TAF SASJ 272300Z 2800/2824 30005KT 9999 OVC030 TX13/2818Z TNM01/2810Z
BECMG 2813/2815 CAVOK

Example: see airport list